Terminal Aerodrome Forecast
Issued by NWS

Home | Current Version | Previous Version | Text Only | Print | Product List | Glossary On
Versions: 1 2 3 4 5 6 7 8 9 10 11 12 13 14 15 16 17 18 19 20 21
000
FTUS46 KEKA 222341
TAFUKI
TAF
KUKI 222341Z 2300/2324 VRB03KT P6SM SCT045
     FM230100 VRB05KT P6SM SCT060 OVC180
     FM230900 VRB03KT P6SM BKN060 BKN100 OVC180 PROB30 2309/2313
      P6SM -RA BKN060
     FM231300 15005KT P6SM -RA BKN040 OVC080=

USA.gov is the U.S. government's official web portal to all federal, state and local government web resources and services.